Home > Products > Valid Products > TAF

000
FTUS42 KCHS 251100
TAFCHS
TAF
KCHS 251120Z 2512/2612 34006KT P6SM FEW250
     FM252300 25003KT P6SM SKC=



000
FTUS42 KCHS 251100
TAFSAV
TAF
KSAV 251120Z 2512/2612 34005KT P6SM FEW250
     FM252300 VRB02KT P6SM SKC=



000
FTUS42 KCHS 251100
TAFSAV
TAF
KSAV 251120Z 2512/2612 34005KT P6SM FEW250
     FM252300 VRB02KT P6SM SKC=



000
FTUS42 KCHS 251100
TAFCHS
TAF
KCHS 251120Z 2512/2612 34006KT P6SM FEW250
     FM252300 25003KT P6SM SKC=



000
FTUS42 KCHS 250500
TAFCHS
TAF
KCHS 250522Z 2506/2606 36003KT P6SM SKC
     FM251500 34006KT P6SM SKC
     FM252200 VRB03KT P6SM SKC=



000
FTUS42 KCHS 250500
TAFSAV
TAF
KSAV 250522Z 2506/2606 35003KT P6SM SKC
     FM251400 34006KT P6SM SKC
     FM252200 VRB03KT P6SM SKC=



000
FTUS42 KCHS 242300
TAFSAV
TAF
KSAV 242320Z 2500/2524 00000KT P6SM SKC
     FM251400 34006KT P6SM SKC
     FM252200 VRB03KT P6SM SKC=



000
FTUS42 KCHS 242300
TAFCHS
TAF
KCHS 242320Z 2500/2524 00000KT P6SM SKC
     FM251400 34006KT P6SM SKC
     FM252200 VRB03KT P6SM SKC=



000
FTUS42 KCHS 241700
TAFSAV
TAF
KSAV 241731Z 2418/2518 VRB03KT P6SM SCT250
     FM251400 34006KT P6SM SKC=



000
FTUS42 KCHS 241700
TAFCHS
TAF
KCHS 241731Z 2418/2518 VRB03KT P6SM SCT250
     FM251400 36006KT P6SM SKC=



000
FTUS42 KCHS 241500 AAA
TAFSAV
TAF AMD
KSAV 241544Z 2416/2512 VRB04KT P6SM SCT250=



000
FTUS42 KCHS 241500 AAA
TAFCHS
TAF AMD
KCHS 241543Z 2416/2512 VRB03KT P6SM SCT250=



000
FTUS42 KCHS 241100
TAFCHS
TAF
KCHS 241133Z 2412/2512 02005KT P6SM BKN250
     FM242300 VRB03KT P6SM SCT150=



000
FTUS42 KCHS 241100
TAFSAV
TAF
KSAV 241133Z 2412/2512 04004KT P6SM BKN250
     FM242300 VRB03KT P6SM FEW250=



000
FTUS42 KCHS 240500
TAFSAV
TAF
KSAV 240525Z 2406/2506 00000KT P6SM BKN250
     FM241600 01005KT P6SM FEW250
     FM250000 00000KT P6SM SKC=



000
FTUS42 KCHS 240500
TAFCHS
TAF
KCHS 240525Z 2406/2506 00000KT P6SM BKN250
     FM241500 02006KT P6SM SCT250
     FM250000 00000KT P6SM FEW250=



000
FTUS42 KCHS 232300
TAFCHS
TAF
KCHS 232324Z 2400/2424 00000KT P6SM SCT250
     FM241500 02006KT P6SM FEW250=



000
FTUS42 KCHS 232300
TAFSAV
TAF
KSAV 232324Z 2400/2424 00000KT P6SM SCT250
     FM241600 01005KT P6SM FEW250=



000
FTUS42 KCHS 231700
TAFCHS
TAF
KCHS 231734Z 2318/2418 32006KT P6SM SKC
     FM240000 VRB02KT P6SM SCT250
     FM241500 02006KT P6SM FEW200=



000
FTUS42 KCHS 231700
TAFSAV
TAF
KSAV 231734Z 2318/2418 31006KT P6SM SKC
     FM240000 00000KT P6SM SCT250
     FM241600 01005KT P6SM FEW200=



000
FTUS42 KCHS 231100
TAFCHS
TAF
KCHS 231129Z 2312/2412 36006KT P6SM SKC
     FM231700 32008KT P6SM FEW250
     FM240000 VRB03KT P6SM BKN250=



000
FTUS42 KCHS 231100
TAFSAV
TAF
KSAV 231129Z 2312/2412 36004KT P6SM SKC
     FM231800 32007KT P6SM FEW250
     FM240000 VRB03KT P6SM BKN250=



000
FTUS42 KCHS 230500
TAFSAV
TAF
KSAV 230521Z 2306/2406 36004KT P6SM SKC
     FM231800 32007KT P6SM SKC
     FM240000 VRB03KT P6SM SKC=



000
FTUS42 KCHS 230500
TAFCHS
TAF
KCHS 230521Z 2306/2406 36006KT P6SM SKC
     FM231700 32008KT P6SM SKC
     FM240000 VRB03KT P6SM SKC=



000
FTUS42 KCHS 222300
TAFSAV
TAF
KSAV 222326Z 2300/2324 36003KT P6SM SKC
     FM231500 32007KT P6SM SKC=



000
FTUS42 KCHS 222300
TAFCHS
TAF
KCHS 222326Z 2300/2324 35003KT P6SM SKC
     FM231500 32008KT P6SM SKC=



000
FTUS42 KCHS 221900 AAA
TAFCHS
TAF AMD
KCHS 221934Z 2220/2318 34011G18KT P6SM SKC
     FM222200 34006KT P6SM SKC
     FM231300 31008KT P6SM SKC=



000
FTUS42 KCHS 221700
TAFCHS
TAF
KCHS 221721Z 2218/2318 02013KT P6SM SKC
     FM222200 34006KT P6SM SKC
     FM231300 31008KT P6SM SKC=



000
FTUS42 KCHS 221700
TAFSAV
TAF
KSAV 221721Z 2218/2318 01011KT P6SM SKC
     FM222200 34004KT P6SM SKC
     FM231300 32008KT P6SM SKC=



000
FTUS42 KCHS 221700
TAFSAV
TAF
KSAV 221721Z 2218/2318 01011KT P6SM SKC
     FM222200 34004KT P6SM SKC
     FM231300 32008KT P6SM SKC=



000
FTUS42 KCHS 221700
TAFCHS
TAF
KCHS 221721Z 2218/2318 02013KT P6SM SKC
     FM222200 34006KT P6SM SKC
     FM231300 31008KT P6SM SKC=



    US Dept of Commerce
    National Oceanic and Atmospheric Administration
    National Weather Service
    1325 East West Highway
    Silver Spring, MD 20910
    Page Author: NWS Internet Services Team
Disclaimer
Information Quality
Credits
Glossary
Privacy Policy
Freedom of Information Act (FOIA)
About Us
Career Opportunities